Time;durP1;ratioP1;P1;durP2;ratioP2;P2;SDS_P1;SDS_P2;PMS_P1;PMS_P2;Temp;Humidity;BMP_temperature;BMP_pressure;BME280_temperature;BME280_humidity;BME280_pressure;Samples;Min_cycle;Max_cycle;Signal;HPM_P1;HPM_P2
2022/02/10 00:03:29;;;;;;;;;;;9.10;99.90;;;;;;5007103;28;21541;-62
2022/02/10 00:17:44;;;;;;;7.47;5.32;;;9.10;99.90;;;;;;5009204;28;20028;-62
2022/02/10 00:20:27;;;;;;;8.68;4.57;;;9.10;99.90;;;;;;5006502;28;20026;-62
2022/02/10 00:23:14;;;;;;;9.20;4.80;;;9.10;99.90;;;;;;5012998;28;20042;-62
2022/02/10 00:34:09;;;;;;;6.60;4.38;;;9.10;99.90;;;;;;5006332;28;20026;-61
2022/02/10 00:36:28;;;;;;;6.35;4.15;;;9.10;99.90;;;;;;5014157;28;20037;-62
2022/02/10 00:39:03;;;;;;;7.60;4.13;;;9.10;99.90;;;;;;5004480;28;20026;-59
2022/02/10 00:41:29;;;;;;;8.05;4.97;;;9.10;99.90;;;;;;5013103;28;20026;-63
2022/02/10 00:43:54;;;;;;;;;;;9.10;99.90;;;;;;5017339;28;20038;-59
2022/02/10 00:46:20;;;;;;;4.78;3.55;;;9.10;99.90;;;;;;5017005;28;20207;-62
2022/02/10 00:48:46;;;;;;;;;;;9.10;99.90;;;;;;5012878;28;20025;-62
2022/02/10 00:51:12;;;;;;;4.35;3.10;;;9.10;99.90;;;;;;5015380;28;19936;-61
2022/02/10 00:53:41;;;;;;;6.70;3.83;;;9.10;99.90;;;;;;5012435;28;20065;-62
2022/02/10 00:56:09;;;;;;;5.97;2.97;;;9.10;99.90;;;;;;5013633;28;20028;-60
2022/02/10 00:58:37;;;;;;;3.97;2.85;;;9.10;99.90;;;;;;5012830;28;20092;-61
2022/02/10 01:12:28;;;;;;;5.32;1.50;;;9.10;99.90;;;;;;5006158;28;20040;-62
2022/02/10 01:30:36;;;;;;;4.40;1.77;;;9.20;99.90;;;;;;5008250;28;20116;-61
2022/02/10 01:33:05;;;;;;;;;;;9.20;99.90;;;;;;5009332;28;20559;-58
2022/02/10 01:35:31;;;;;;;2.15;1.30;;;9.20;99.90;;;;;;5013782;28;20233;-62
2022/02/10 01:37:56;;;;;;;;;;;9.20;99.90;;;;;;5006820;28;20502;-61
2022/02/10 01:40:36;;;;;;;3.85;1.75;;;9.20;99.90;;;;;;5006657;28;19956;-59
2022/02/10 01:57:42;;;;;;;2.38;1.58;;;9.20;99.90;;;;;;5009781;28;20131;-60
2022/02/10 02:05:07;;;;;;;2.83;1.83;;;9.20;99.90;;;;;;5011943;28;20494;-62
2022/02/10 02:07:33;;;;;;;4.60;1.92;;;9.20;99.90;;;;;;5013599;28;20072;-60
2022/02/10 02:09:58;;;;;;;2.60;1.60;;;9.20;99.90;;;;;;5011494;28;20107;-62
2022/02/10 02:12:24;;;;;;;;;;;9.20;99.90;;;;;;5012468;28;20478;-62
2022/02/10 02:14:49;;;;;;;2.42;1.80;;;9.20;99.90;;;;;;5017019;28;19913;-62
2022/02/10 02:17:15;;;;;;;;;;;9.20;99.90;;;;;;5012086;28;20145;-62
2022/02/10 02:19:40;;;;;;;3.42;2.42;;;9.20;99.90;;;;;;5014071;28;19960;-61
2022/02/10 02:22:07;;;;;;;;;;;9.20;99.90;;;;;;5008387;28;20121;-62
2022/02/10 02:24:33;;;;;;;15.77;9.18;;;9.20;99.90;;;;;;5011060;28;20200;-61
2022/02/10 02:27:02;;;;;;;21.90;13.48;;;9.20;99.90;;;;;;5009295;28;20091;-61
2022/02/10 02:29:34;;;;;;;7.55;4.68;;;9.20;99.90;;;;;;5010060;28;20026;-59
2022/02/10 02:32:05;;;;;;;5.75;4.85;;;9.20;99.90;;;;;;5009678;28;20057;-61
2022/02/10 03:04:43;;;;;;;5.13;3.92;;;9.10;99.90;;;;;;5013977;28;20076;-61
2022/02/10 03:07:13;;;;;;;5.68;4.88;;;9.10;99.90;;;;;;5009755;28;20518;-60
2022/02/10 03:09:43;;;;;;;6.97;5.47;;;9.10;99.90;;;;;;5010644;28;20033;-60
2022/02/10 03:12:11;;;;;;;10.05;6.82;;;9.10;99.90;;;;;;5016295;28;20036;-62
2022/02/10 03:14:44;;;;;;;10.82;6.00;;;9.10;99.90;;;;;;5010405;28;20034;-62
2022/02/10 03:17:41;;;;;;;6.72;5.53;;;9.10;99.90;;;;;;5011964;28;20037;-62
2022/02/10 03:20:23;;;;;;;7.63;4.85;;;9.10;99.90;;;;;;5009910;28;20040;-63
2022/02/10 04:04:14;;;;;;;4.05;2.90;;;8.90;99.90;;;;;;5009113;28;20060;-60
2022/02/10 04:12:41;;;;;;;6.50;2.97;;;8.80;99.90;;;;;;5006662;28;20041;-61
2022/02/10 04:15:17;;;;;;;3.73;2.93;;;8.80;99.90;;;;;;5009178;28;20655;-61
2022/02/10 04:31:01;;;;;;;4.72;3.65;;;8.70;99.90;;;;;;5010547;28;19913;-61
2022/02/10 04:57:46;;;;;;;8.68;4.35;;;8.70;99.90;;;;;;5014370;28;20049;-62
2022/02/10 05:12:08;;;;;;;22.13;11.93;;;8.70;99.90;;;;;;5006757;28;20036;-61
2022/02/10 05:35:29;;;;;;;;;;;8.70;99.90;;;;;;5009478;28;20372;-61
2022/02/10 05:37:54;;;;;;;20.45;11.30;;;8.60;99.90;;;;;;5007212;28;19918;-59
2022/02/10 05:46:18;;;;;;;14.35;8.18;;;8.60;99.90;;;;;;5014408;28;20037;-60
2022/02/10 05:54:39;;;;;;;12.13;6.57;;;8.60;99.90;;;;;;4998348;28;20040;-57
2022/02/10 06:42:46;;;;;;;12.80;6.07;;;8.30;99.90;;;;;;5013998;28;20032;-59
2022/02/10 06:46:05;;;;;;;9.13;6.28;;;8.30;99.90;;;;;;5018322;28;20037;-61
2022/02/10 06:50:09;;;;;;;10.27;6.65;;;8.40;99.90;;;;;;5017869;28;20028;-60
2022/02/10 06:57:24;;;;;;;13.98;6.82;;;8.40;99.90;;;;;;5012162;28;19984;-62
2022/02/10 07:10:40;;;;;;;23.90;6.38;;;8.50;99.90;;;;;;5008986;28;20026;-62
2022/02/10 07:13:40;;;;;;;12.70;6.97;;;8.50;99.90;;;;;;5013789;28;20025;-61
2022/02/10 07:16:36;;;;;;;20.77;7.00;;;8.50;99.90;;;;;;5011418;28;20026;-60
2022/02/10 08:05:08;;;;;;;12.63;7.13;;;8.40;99.90;;;;;;5008183;28;20407;-62
2022/02/10 08:56:31;;;;;;;14.00;8.20;;;8.90;99.90;;;;;;5017487;28;20071;-62
2022/02/10 08:59:26;;;;;;;11.80;6.63;;;9.00;99.90;;;;;;5011993;28;20057;-62
2022/02/10 09:02:35;;;;;;;14.70;8.50;;;9.00;99.90;;;;;;5012101;28;20030;-60
2022/02/10 09:12:44;;;;;;;11.15;6.90;;;8.90;99.90;;;;;;5007143;28;19917;-62
2022/02/10 09:59:24;;;;;;;13.43;8.55;;;9.20;99.90;;;;;;5044412;28;20478;-60
2022/02/10 10:01:20;;;;;;;17.95;9.73;;;9.20;99.90;;;;;;5037669;28;20036;-62
2022/02/10 10:03:54;;;;;;;16.70;9.43;;;9.20;99.90;;;;;;5042755;28;20108;-60
2022/02/10 10:06:45;;;;;;;13.95;7.60;;;9.20;99.90;;;;;;5043435;28;20025;-60
2022/02/10 10:15:42;;;;;;;14.35;8.50;;;9.30;99.90;;;;;;5046060;28;20031;-59
2022/02/10 10:18:27;;;;;;;13.98;9.75;;;9.40;99.90;;;;;;5046969;28;20037;-60
2022/02/10 10:21:20;;;;;;;21.42;9.27;;;9.50;99.90;;;;;;5043562;28;20058;-61
2022/02/10 10:58:47;;;;;;;15.88;9.32;;;9.80;99.90;;;;;;5045181;28;20393;-60
2022/02/10 11:05:25;;;;;;;21.63;10.65;;;9.80;99.90;;;;;;5044056;28;20041;-62
2022/02/10 11:41:08;;;;;;;51.00;22.10;;;8.80;99.90;;;;;;5043883;28;20033;-60
2022/02/10 11:43:51;;;;;;;19.83;12.75;;;8.90;99.90;;;;;;5039146;28;20025;-59
2022/02/10 14:14:18;;;;;;;7.72;3.70;;;8.00;99.90;;;;;;5047062;28;20498;-60
2022/02/10 14:16:55;;;;;;;6.70;3.13;;;8.00;99.90;;;;;;5044949;28;20039;-59
2022/02/10 14:27:18;;;;;;;3.85;1.58;;;8.00;99.90;;;;;;5044265;28;20040;-59
2022/02/10 14:29:45;;;;;;;5.63;2.20;;;8.00;99.90;;;;;;5046047;28;20580;-61
2022/02/10 14:32:14;;;;;;;6.07;1.77;;;8.00;99.90;;;;;;5045365;28;20025;-60
2022/02/10 14:34:40;;;;;;;4.68;1.92;;;8.00;99.90;;;;;;5045060;28;20104;-60
2022/02/10 14:37:30;;;;;;;;;;;8.00;99.90;;;;;;5047220;28;20119;-61
2022/02/10 15:32:44;;;;;;;11.55;3.15;;;7.60;99.90;;;;;;5042357;28;20406;-62
2022/02/10 15:51:14;;;;;;;;;;;7.50;99.90;;;;;;5043701;28;20013;-61
2022/02/10 16:17:24;;;;;;;2.78;1.20;;;7.30;99.90;;;;;;5025834;28;19975;-60
2022/02/10 16:19:51;;;;;;;5.85;1.20;;;7.30;99.90;;;;;;5031768;28;20039;-58
2022/02/10 16:24:50;;;;;;;;;;;7.20;99.90;;;;;;5027789;28;20025;-61
2022/02/10 16:27:25;;;;;;;3.13;1.27;;;7.20;99.90;;;;;;5022820;28;19915;-58
2022/02/10 16:29:57;;;;;;;2.75;1.42;;;7.10;99.90;;;;;;5027515;28;20021;-59
2022/02/10 16:32:23;;;;;;;3.25;1.92;;;7.10;99.90;;;;;;5023400;28;20513;-58
2022/02/10 16:34:48;;;;;;;;;;;7.10;99.90;;;;;;5029697;28;20037;-61
2022/02/10 16:37:14;;;;;;;3.65;1.38;;;7.10;99.90;;;;;;5031569;28;20019;-59
2022/02/10 16:39:40;;;;;;;;;;;7.10;99.90;;;;;;5026569;28;20068;-60
2022/02/10 16:42:08;;;;;;;2.00;1.23;;;7.10;99.90;;;;;;5027351;28;19912;-59
2022/02/10 16:44:34;;;;;;;2.50;1.08;;;7.10;99.90;;;;;;5027685;28;20037;-61
2022/02/10 16:47:00;;;;;;;;;;;7.10;99.90;;;;;;5031442;28;20044;-58
2022/02/10 16:49:28;;;;;;;3.67;1.02;;;7.10;99.90;;;;;;5023809;28;20003;-60
2022/02/10 16:51:55;;;;;;;3.08;1.08;;;7.10;99.90;;;;;;5025857;28;20029;-59
2022/02/10 16:54:33;;;;;;;5.03;1.50;;;7.10;99.90;;;;;;5020758;28;20060;-60
2022/02/10 16:57:04;;;;;;;3.38;1.77;;;7.10;99.90;;;;;;5025788;28;20529;-58
2022/02/10 17:16:04;;;;;;;4.68;2.15;;;7.00;99.90;;;;;;5016422;28;20060;-60
2022/02/10 17:20:45;;;;;;;3.72;1.40;;;7.00;99.90;;;;;;5025315;28;20482;-61
2022/02/10 17:28:34;;;;;;;4.05;2.00;;;6.90;99.90;;;;;;5026875;28;20032;-60
2022/02/10 17:31:19;;;;;;;7.40;1.38;;;6.90;99.90;;;;;;5025496;28;20021;-61
2022/02/10 17:36:27;;;;;;;2.17;0.95;;;7.00;99.90;;;;;;5040301;28;20041;-61
2022/02/10 17:52:38;;;;;;;4.47;2.22;;;6.90;99.90;;;;;;5028518;28;20040;-60
2022/02/10 17:55:09;;;;;;;8.52;4.25;;;6.90;99.90;;;;;;5019484;28;20550;-58
2022/02/10 17:57:35;;;;;;;6.53;2.75;;;6.90;99.90;;;;;;5021958;28;20151;-60
2022/02/10 18:00:00;;;;;;;;;;;6.90;99.90;;;;;;5021387;28;20033;-59
2022/02/10 18:02:26;;;;;;;5.82;2.67;;;6.90;99.90;;;;;;5022003;28;20027;-60
2022/02/10 18:04:51;;;;;;;;;;;7.00;99.90;;;;;;5035883;28;20029;-59
2022/02/10 18:07:17;;;;;;;3.97;2.45;;;7.00;99.90;;;;;;5037582;28;20319;-59
2022/02/10 18:10:10;;;;;;;;;;;7.00;99.90;;;;;;5035367;28;20453;-59
2022/02/10 18:13:20;;;;;;;6.28;1.67;;;7.00;99.90;;;;;;5035378;28;20460;-61
2022/02/10 18:15:45;;;;;;;5.63;2.53;;;7.00;99.90;;;;;;5040563;28;20029;-60
2022/02/10 18:18:21;;;;;;;6.47;1.90;;;7.00;99.90;;;;;;5044850;28;20445;-59
2022/02/10 18:20:53;;;;;;;4.30;1.83;;;7.00;99.90;;;;;;5039486;28;20043;-57
2022/02/10 18:23:27;;;;;;;4.68;1.48;;;7.00;99.90;;;;;;5033875;28;20111;-59
2022/02/10 18:26:00;;;;;;;4.55;2.17;;;7.00;99.90;;;;;;5033752;28;20028;-60
2022/02/10 18:29:18;;;;;;;6.22;2.47;;;7.00;99.90;;;;;;5032770;28;20021;-57
2022/02/10 19:05:28;;;;;;;3.70;2.78;;;6.80;99.90;;;;;;5029869;28;20059;-61
2022/02/10 19:08:43;;;;;;;5.05;2.92;;;6.80;99.90;;;;;;5039602;28;20052;-59
2022/02/10 19:11:10;;;;;;;10.32;3.30;;;6.80;99.90;;;;;;5037534;28;20051;-60
2022/02/10 19:13:35;;;;;;;5.97;3.33;;;6.80;99.90;;;;;;5038999;28;20116;-62
2022/02/10 19:16:01;;;;;;;;;;;6.80;99.90;;;;;;5033780;28;20029;-59
2022/02/10 19:18:26;;;;;;;6.50;3.05;;;6.70;99.90;;;;;;5029006;28;19932;-59
2022/02/10 19:20:52;;;;;;;;;;;6.70;99.90;;;;;;5033040;28;20413;-57
2022/02/10 19:23:17;;;;;;;10.55;3.35;;;6.70;99.90;;;;;;5027937;28;19927;-62
2022/02/10 19:25:43;;;;;;;;;;;6.70;99.90;;;;;;5039002;28;20036;-61
2022/02/10 19:28:09;;;;;;;11.95;4.18;;;6.60;99.90;;;;;;5046704;28;19912;-61
2022/02/10 19:30:37;;;;;;;9.05;2.90;;;6.70;99.90;;;;;;5043771;28;20043;-61
2022/02/10 19:33:08;;;;;;;5.00;2.47;;;6.60;99.90;;;;;;5031729;28;20766;-59
2022/02/10 19:35:39;;;;;;;4.45;2.58;;;6.60;99.90;;;;;;5030324;28;20855;-59
2022/02/10 19:38:06;;;;;;;7.15;2.17;;;6.60;99.90;;;;;;5029620;28;20632;-60
2022/02/10 19:40:36;;;;;;;4.50;2.45;;;6.60;99.90;;;;;;5039759;28;20037;-60
2022/02/10 19:43:02;;;;;;;4.20;1.73;;;6.50;99.90;;;;;;5033484;28;20635;-61
2022/02/10 19:45:27;;;;;;;;;;;6.50;99.90;;;;;;5036057;28;20028;-59
2022/02/10 19:47:53;;;;;;;6.53;1.90;;;6.50;99.90;;;;;;5032666;28;19916;-61
2022/02/10 19:50:26;;;;;;;3.70;2.58;;;6.50;99.90;;;;;;5030570;28;20482;-58
2022/02/10 19:52:54;;;;;;;4.93;2.17;;;6.50;99.90;;;;;;5033109;28;20398;-60
2022/02/10 19:55:22;;;;;;;4.68;3.28;;;6.40;99.90;;;;;;5028154;28;20363;-58
2022/02/10 19:57:51;;;;;;;6.05;2.92;;;6.50;99.90;;;;;;5035101;28;20037;-59
2022/02/10 20:00:21;;;;;;;2.72;2.10;;;6.40;99.90;;;;;;5038562;28;20036;-60
2022/02/10 20:02:48;;;;;;;4.93;2.13;;;6.40;99.90;;;;;;5044788;28;20028;-61
2022/02/10 20:05:13;;;;;;;3.60;1.52;;;6.40;99.90;;;;;;5046548;28;20053;-61
2022/02/10 20:07:40;;;;;;;;;;;6.40;99.90;;;;;;5045283;28;20065;-57
2022/02/10 20:10:08;;;;;;;4.07;1.77;;;6.40;99.90;;;;;;5042733;28;19913;-59
2022/02/10 20:12:35;;;;;;;6.45;1.27;;;6.30;99.90;;;;;;5044638;28;20037;-59
2022/02/10 20:15:01;;;;;;;3.25;1.35;;;6.30;99.90;;;;;;5041270;28;20040;-60
2022/02/10 20:17:27;;;;;;;6.70;1.08;;;6.30;99.90;;;;;;5035727;28;20025;-61
2022/02/10 20:19:52;;;;;;;;;;;6.30;99.90;;;;;;5030709;28;20038;-61
2022/02/10 20:22:18;;;;;;;3.63;1.08;;;6.30;99.90;;;;;;5038205;28;19939;-60
2022/02/10 20:24:43;;;;;;;4.18;0.90;;;6.30;99.90;;;;;;5033641;28;20041;-59
2022/02/10 20:27:09;;;;;;;3.47;0.80;;;6.20;99.90;;;;;;5029065;28;20509;-58
2022/02/10 20:29:35;;;;;;;13.30;2.83;;;6.20;99.90;;;;;;5036302;28;20028;-58
2022/02/10 20:32:02;;;;;;;2.95;0.73;;;6.20;99.90;;;;;;5031361;28;20025;-57
2022/02/10 20:34:30;;;;;;;6.18;1.10;;;6.20;99.90;;;;;;5033142;28;20424;-60
2022/02/10 20:36:57;;;;;;;5.38;1.15;;;6.10;99.90;;;;;;5027064;28;20437;-57
2022/02/10 20:39:26;;;;;;;2.13;1.00;;;6.10;99.90;;;;;;5036949;28;20349;-59
2022/02/10 20:42:00;;;;;;;4.50;1.00;;;6.10;99.90;;;;;;5032874;28;20025;-59
2022/02/10 20:44:26;;;;;;;3.40;1.52;;;6.10;99.90;;;;;;5026673;28;20060;-57
2022/02/10 20:46:52;;;;;;;4.57;1.52;;;6.00;99.90;;;;;;5034432;28;20021;-58
2022/02/10 20:49:18;;;;;;;;;;;6.00;99.90;;;;;;5027873;28;20035;-57
2022/02/10 20:51:46;;;;;;;4.20;1.48;;;6.00;99.90;;;;;;5033911;28;20142;-60
2022/02/10 20:54:11;;;;;;;3.53;1.40;;;6.00;99.90;;;;;;5027793;28;20061;-61
2022/02/10 20:56:37;;;;;;;;;;;5.90;99.90;;;;;;5028951;28;20025;-60
2022/02/10 20:59:17;;;;;;;4.60;2.45;;;5.90;99.90;;;;;;5032041;28;19928;-59
2022/02/10 21:01:43;;;;;;;6.20;1.95;;;5.90;99.90;;;;;;5031763;28;20033;-59
2022/02/10 21:04:10;;;;;;;4.05;1.40;;;5.90;99.90;;;;;;5041340;28;20059;-60
2022/02/10 21:09:33;;;;;;;3.20;1.75;;;5.90;99.90;;;;;;5044863;28;19915;-59
2022/02/10 21:11:59;;;;;;;6.95;1.98;;;5.90;99.90;;;;;;5044905;28;20163;-61
2022/02/10 21:14:27;;;;;;;4.32;1.55;;;5.80;99.90;;;;;;5044319;28;20029;-60
2022/02/10 21:16:53;;;;;;;5.20;2.00;;;5.80;99.90;;;;;;5044177;28;20033;-60
2022/02/10 21:19:22;;;;;;;;;;;5.80;99.90;;;;;;5042201;28;20064;-59
2022/02/10 21:21:48;;;;;;;6.40;2.13;;;5.80;99.90;;;;;;5044872;28;19909;-59
2022/02/10 21:29:29;;;;;;;5.70;1.80;;;5.80;99.90;;;;;;5045857;28;20032;-61
2022/02/10 21:31:57;;;;;;;6.28;1.90;;;5.80;99.90;;;;;;5045040;28;20024;-61
2022/02/10 21:34:26;;;;;;;4.22;1.88;;;5.80;99.90;;;;;;5045672;28;20114;-61
2022/02/10 21:37:08;;;;;;;5.45;1.98;;;5.80;99.90;;;;;;5043008;28;20021;-61
2022/02/10 21:39:58;;;;;;;6.70;1.40;;;5.80;99.90;;;;;;5044530;28;20040;-61
2022/02/10 22:01:51;;;;;;;7.70;2.72;;;5.60;99.90;;;;;;5043756;28;19916;-59
2022/02/10 22:09:33;;;;;;;2.45;1.40;;;5.60;99.90;;;;;;5004961;28;20609;-58
2022/02/10 22:20:11;;;;;;;2.75;1.10;;;5.60;99.90;;;;;;5049029;28;20053;-59
2022/02/10 22:22:48;;;;;;;2.38;1.45;;;5.70;99.90;;;;;;5049071;28;20060;-57
2022/02/10 22:25:15;;;;;;;6.97;1.52;;;5.70;99.90;;;;;;5049297;28;20044;-59
2022/02/10 22:27:45;;;;;;;2.17;1.00;;;5.70;99.90;;;;;;5046615;28;20024;-59
2022/02/10 22:30:20;;;;;;;2.70;1.55;;;5.70;99.90;;;;;;5048059;28;20025;-61
2022/02/10 22:32:59;;;;;;;2.47;1.48;;;5.80;99.90;;;;;;5048699;28;20075;-61
2022/02/10 22:35:28;;;;;;;4.22;1.30;;;5.70;99.90;;;;;;5049020;28;20074;-58
2022/02/10 22:37:56;;;;;;;2.97;1.25;;;5.70;99.90;;;;;;5048770;28;20067;-62
2022/02/10 22:41:22;;;;;;;3.20;1.40;;;5.70;99.90;;;;;;5048712;28;20025;-60
2022/02/10 22:43:17;;;;;;;2.53;1.42;;;5.70;99.90;;;;;;5035335;28;20438;-62
2022/02/10 22:45:42;;;;;;;;;;;5.60;99.90;;;;;;5046709;28;20049;-59
2022/02/10 22:48:07;;;;;;;2.28;1.83;;;5.60;99.90;;;;;;5048567;28;20030;-59
2022/02/10 22:50:33;;;;;;;;;;;5.50;99.90;;;;;;5048356;28;20110;-62
2022/02/10 22:52:59;;;;;;;4.78;1.83;;;5.50;99.90;;;;;;5049572;28;19944;-59
2022/02/10 22:55:24;;;;;;;5.72;1.67;;;5.50;99.90;;;;;;5048598;28;20517;-62
2022/02/10 22:57:50;;;;;;;;;;;5.50;99.90;;;;;;5048670;28;20482;-63
2022/02/10 23:00:28;;;;;;;3.70;1.50;;;5.50;99.90;;;;;;5047484;28;20369;-59
2022/02/10 23:02:54;;;;;;;2.80;1.80;;;5.40;99.90;;;;;;5046831;28;20509;-60
2022/02/10 23:05:21;;;;;;;4.05;1.80;;;5.40;99.90;;;;;;5049099;28;20102;-63
2022/02/10 23:07:51;;;;;;;3.95;2.45;;;5.40;99.90;;;;;;5046101;28;20071;-60
2022/02/10 23:12:42;;;;;;;6.97;2.97;;;5.40;99.90;;;;;;5048113;28;20025;-63
2022/02/10 23:15:08;;;;;;;;;;;5.40;99.90;;;;;;5047685;28;20535;-60
2022/02/10 23:17:36;;;;;;;3.33;2.13;;;5.40;99.90;;;;;;5047895;28;19955;-60
2022/02/10 23:20:02;;;;;;;7.68;2.75;;;5.40;99.90;;;;;;5047633;28;20389;-60
2022/02/10 23:22:28;;;;;;;3.78;2.00;;;5.40;99.90;;;;;;5048328;28;20037;-60
2022/02/10 23:24:53;;;;;;;2.50;2.10;;;5.40;99.90;;;;;;5046654;28;20108;-61
2022/02/10 23:27:19;;;;;;;;;;;5.40;99.90;;;;;;5047469;28;20375;-62
2022/02/10 23:29:44;;;;;;;5.55;2.63;;;5.40;99.90;;;;;;5047347;28;20274;-60
2022/02/10 23:32:11;;;;;;;4.88;2.55;;;5.40;99.90;;;;;;5047577;28;20021;-59
2022/02/10 23:34:37;;;;;;;3.67;2.53;;;5.40;99.90;;;;;;5047621;28;20489;-59
2022/02/10 23:37:02;;;;;;;;;;;5.40;99.90;;;;;;5046991;28;20497;-63
2022/02/10 23:39:31;;;;;;;4.25;2.63;;;5.30;99.90;;;;;;5046777;28;19943;-61
2022/02/10 23:42:13;;;;;;;5.07;2.33;;;5.30;99.90;;;;;;5047716;28;20474;-59
2022/02/10 23:44:43;;;;;;;2.80;2.00;;;5.30;99.90;;;;;;5047244;28;20017;-62
2022/02/10 23:47:15;;;;;;;3.92;2.30;;;5.30;99.90;;;;;;5045649;28;20521;-63
2022/02/10 23:49:41;;;;;;;5.88;3.17;;;5.30;99.90;;;;;;5047112;28;20053;-60
2022/02/10 23:52:08;;;;;;;4.78;2.03;;;5.30;99.90;;;;;;5047824;28;20489;-60
2022/02/10 23:54:38;;;;;;;2.85;1.55;;;5.30;99.90;;;;;;5047842;28;20031;-60
2022/02/10 23:57:10;;;;;;;2.00;1.50;;;5.30;99.90;;;;;;5046799;28;20359;-61
